sensor_id;sensor_type;location;lat;lon;timestamp;P1;durP1;ratioP1;P2;durP2;ratioP2
56911;SDS011;42800;53.928;27.662;2023-05-10T00:01:08;2.55;;;2.08;;
56911;SDS011;42800;53.928;27.662;2023-05-10T00:03:34;4.57;;;2.33;;
56911;SDS011;42800;53.928;27.662;2023-05-10T00:06:00;5.80;;;2.40;;
56911;SDS011;42800;53.928;27.662;2023-05-10T00:08:26;6.18;;;2.30;;
56911;SDS011;42800;53.928;27.662;2023-05-10T00:10:52;3.03;;;2.03;;
56911;SDS011;42800;53.928;27.662;2023-05-10T00:13:19;4.45;;;2.22;;
56911;SDS011;42800;53.928;27.662;2023-05-10T00:15:45;3.65;;;2.50;;
56911;SDS011;42800;53.928;27.662;2023-05-10T00:18:11;4.68;;;2.08;;
56911;SDS011;42800;53.928;27.662;2023-05-10T00:20:36;7.35;;;2.40;;
56911;SDS011;42800;53.928;27.662;2023-05-10T00:23:02;2.67;;;2.03;;
56911;SDS011;42800;53.928;27.662;2023-05-10T00:25:28;3.38;;;2.13;;
56911;SDS011;42800;53.928;27.662;2023-05-10T00:27:54;3.28;;;2.13;;
56911;SDS011;42800;53.928;27.662;2023-05-10T00:30:22;4.70;;;2.58;;
56911;SDS011;42800;53.928;27.662;2023-05-10T00:32:48;3.33;;;2.30;;
56911;SDS011;42800;53.928;27.662;2023-05-10T00:35:15;3.33;;;2.70;;
56911;SDS011;42800;53.928;27.662;2023-05-10T00:37:41;4.88;;;2.35;;
56911;SDS011;42800;53.928;27.662;2023-05-10T00:40:07;4.60;;;2.28;;
56911;SDS011;42800;53.928;27.662;2023-05-10T00:42:34;3.53;;;2.72;;
56911;SDS011;42800;53.928;27.662;2023-05-10T00:44:59;4.60;;;2.50;;
56911;SDS011;42800;53.928;27.662;2023-05-10T00:47:26;4.03;;;2.40;;
56911;SDS011;42800;53.928;27.662;2023-05-10T00:49:53;2.30;;;2.10;;
56911;SDS011;42800;53.928;27.662;2023-05-10T00:52:19;3.25;;;2.20;;
56911;SDS011;42800;53.928;27.662;2023-05-10T00:54:45;4.72;;;2.72;;
56911;SDS011;42800;53.928;27.662;2023-05-10T00:57:12;5.18;;;2.67;;
56911;SDS011;42800;53.928;27.662;2023-05-10T00:59:38;5.22;;;2.45;;
56911;SDS011;42800;53.928;27.662;2023-05-10T01:02:04;3.78;;;2.53;;
56911;SDS011;42800;53.928;27.662;2023-05-10T01:04:32;6.38;;;2.47;;
56911;SDS011;42800;53.928;27.662;2023-05-10T01:06:58;3.63;;;2.50;;
56911;SDS011;42800;53.928;27.662;2023-05-10T01:09:24;5.05;;;2.47;;
56911;SDS011;42800;53.928;27.662;2023-05-10T01:11:51;8.73;;;2.58;;
56911;SDS011;42800;53.928;27.662;2023-05-10T01:14:18;5.15;;;2.55;;
56911;SDS011;42800;53.928;27.662;2023-05-10T01:16:45;5.50;;;2.55;;
56911;SDS011;42800;53.928;27.662;2023-05-10T01:19:17;6.88;;;2.80;;
56911;SDS011;42800;53.928;27.662;2023-05-10T01:21:48;3.35;;;2.53;;
56911;SDS011;42800;53.928;27.662;2023-05-10T01:24:25;3.10;;;2.40;;
56911;SDS011;42800;53.928;27.662;2023-05-10T01:27:17;4.18;;;2.40;;
56911;SDS011;42800;53.928;27.662;2023-05-10T01:33:05;3.22;;;2.60;;
56911;SDS011;42800;53.928;27.662;2023-05-10T01:35:37;5.18;;;2.58;;
56911;SDS011;42800;53.928;27.662;2023-05-10T01:38:09;3.75;;;2.63;;
56911;SDS011;42800;53.928;27.662;2023-05-10T01:40:42;6.72;;;2.65;;
56911;SDS011;42800;53.928;27.662;2023-05-10T01:43:17;3.88;;;2.42;;
56911;SDS011;42800;53.928;27.662;2023-05-10T01:45:47;3.40;;;2.63;;
56911;SDS011;42800;53.928;27.662;2023-05-10T01:48:20;6.93;;;2.60;;
56911;SDS011;42800;53.928;27.662;2023-05-10T01:50:48;4.90;;;2.40;;
56911;SDS011;42800;53.928;27.662;2023-05-10T01:53:18;5.50;;;2.88;;
56911;SDS011;42800;53.928;27.662;2023-05-10T01:55:46;5.50;;;2.80;;
56911;SDS011;42800;53.928;27.662;2023-05-10T01:58:14;5.32;;;2.63;;
56911;SDS011;42800;53.928;27.662;2023-05-10T02:00:44;4.85;;;2.28;;
56911;SDS011;42800;53.928;27.662;2023-05-10T02:03:11;3.83;;;2.55;;
56911;SDS011;42800;53.928;27.662;2023-05-10T02:05:39;7.65;;;2.78;;
56911;SDS011;42800;53.928;27.662;2023-05-10T02:08:07;5.72;;;2.53;;
56911;SDS011;42800;53.928;27.662;2023-05-10T02:10:35;4.32;;;2.78;;
56911;SDS011;42800;53.928;27.662;2023-05-10T02:13:02;4.10;;;2.83;;
56911;SDS011;42800;53.928;27.662;2023-05-10T02:15:29;4.03;;;2.60;;
56911;SDS011;42800;53.928;27.662;2023-05-10T02:17:56;4.15;;;2.65;;
56911;SDS011;42800;53.928;27.662;2023-05-10T02:20:24;3.53;;;2.88;;
56911;SDS011;42800;53.928;27.662;2023-05-10T02:22:52;4.55;;;2.78;;
56911;SDS011;42800;53.928;27.662;2023-05-10T02:25:21;4.90;;;2.50;;
56911;SDS011;42800;53.928;27.662;2023-05-10T02:27:48;6.35;;;3.03;;
56911;SDS011;42800;53.928;27.662;2023-05-10T02:30:15;4.10;;;3.22;;
56911;SDS011;42800;53.928;27.662;2023-05-10T02:32:42;4.55;;;2.72;;
56911;SDS011;42800;53.928;27.662;2023-05-10T02:35:09;6.10;;;3.00;;
56911;SDS011;42800;53.928;27.662;2023-05-10T02:37:36;5.95;;;3.03;;
56911;SDS011;42800;53.928;27.662;2023-05-10T02:40:05;7.45;;;3.40;;
56911;SDS011;42800;53.928;27.662;2023-05-10T02:42:35;6.85;;;2.83;;
56911;SDS011;42800;53.928;27.662;2023-05-10T02:45:04;4.22;;;3.03;;
56911;SDS011;42800;53.928;27.662;2023-05-10T02:47:33;9.75;;;3.30;;
56911;SDS011;42800;53.928;27.662;2023-05-10T02:49:59;7.07;;;3.15;;
56911;SDS011;42800;53.928;27.662;2023-05-10T02:52:27;5.20;;;2.72;;
56911;SDS011;42800;53.928;27.662;2023-05-10T02:54:58;5.95;;;3.05;;
56911;SDS011;42800;53.928;27.662;2023-05-10T02:57:29;10.75;;;2.72;;
56911;SDS011;42800;53.928;27.662;2023-05-10T02:59:59;3.85;;;2.85;;
56911;SDS011;42800;53.928;27.662;2023-05-10T03:02:26;4.28;;;2.72;;
56911;SDS011;42800;53.928;27.662;2023-05-10T03:04:52;6.60;;;3.13;;
56911;SDS011;42800;53.928;27.662;2023-05-10T03:07:18;4.35;;;3.00;;
56911;SDS011;42800;53.928;27.662;2023-05-10T03:09:46;5.97;;;3.30;;
56911;SDS011;42800;53.928;27.662;2023-05-10T03:12:14;5.47;;;3.13;;
56911;SDS011;42800;53.928;27.662;2023-05-10T03:14:48;6.75;;;2.95;;
56911;SDS011;42800;53.928;27.662;2023-05-10T03:17:23;4.78;;;2.72;;
56911;SDS011;42800;53.928;27.662;2023-05-10T03:19:55;8.18;;;3.03;;
56911;SDS011;42800;53.928;27.662;2023-05-10T03:22:23;5.07;;;3.28;;
56911;SDS011;42800;53.928;27.662;2023-05-10T03:24:53;6.32;;;3.25;;
56911;SDS011;42800;53.928;27.662;2023-05-10T03:27:21;5.38;;;2.80;;
56911;SDS011;42800;53.928;27.662;2023-05-10T03:29:49;9.85;;;3.55;;
56911;SDS011;42800;53.928;27.662;2023-05-10T03:32:16;4.72;;;3.40;;
56911;SDS011;42800;53.928;27.662;2023-05-10T03:34:42;5.40;;;3.40;;
56911;SDS011;42800;53.928;27.662;2023-05-10T03:37:08;9.88;;;3.78;;
56911;SDS011;42800;53.928;27.662;2023-05-10T03:39:34;7.32;;;3.67;;
56911;SDS011;42800;53.928;27.662;2023-05-10T03:42:00;8.20;;;3.50;;
56911;SDS011;42800;53.928;27.662;2023-05-10T03:44:26;9.15;;;3.10;;
56911;SDS011;42800;53.928;27.662;2023-05-10T03:46:53;6.55;;;3.60;;
56911;SDS011;42800;53.928;27.662;2023-05-10T03:49:19;11.77;;;4.07;;
56911;SDS011;42800;53.928;27.662;2023-05-10T03:51:45;7.68;;;3.85;;
56911;SDS011;42800;53.928;27.662;2023-05-10T03:54:11;7.13;;;3.33;;
56911;SDS011;42800;53.928;27.662;2023-05-10T03:56:36;8.48;;;3.03;;
56911;SDS011;42800;53.928;27.662;2023-05-10T03:59:02;6.20;;;3.67;;
56911;SDS011;42800;53.928;27.662;2023-05-10T04:01:32;4.65;;;3.58;;
56911;SDS011;42800;53.928;27.662;2023-05-10T04:03:58;7.82;;;4.47;;
56911;SDS011;42800;53.928;27.662;2023-05-10T04:06:24;5.03;;;3.00;;
56911;SDS011;42800;53.928;27.662;2023-05-10T04:08:50;4.82;;;3.08;;
56911;SDS011;42800;53.928;27.662;2023-05-10T04:11:16;4.50;;;3.30;;
56911;SDS011;42800;53.928;27.662;2023-05-10T04:13:42;5.28;;;3.25;;
56911;SDS011;42800;53.928;27.662;2023-05-10T04:16:08;5.70;;;3.17;;
56911;SDS011;42800;53.928;27.662;2023-05-10T04:18:34;10.07;;;3.75;;
56911;SDS011;42800;53.928;27.662;2023-05-10T04:21:01;8.32;;;2.95;;
56911;SDS011;42800;53.928;27.662;2023-05-10T04:23:27;7.80;;;3.30;;
56911;SDS011;42800;53.928;27.662;2023-05-10T04:25:58;5.57;;;3.33;;
56911;SDS011;42800;53.928;27.662;2023-05-10T04:28:24;6.07;;;3.03;;
56911;SDS011;42800;53.928;27.662;2023-05-10T04:30:50;5.38;;;3.45;;
56911;SDS011;42800;53.928;27.662;2023-05-10T04:33:16;4.93;;;3.67;;
56911;SDS011;42800;53.928;27.662;2023-05-10T04:35:42;6.70;;;3.05;;
56911;SDS011;42800;53.928;27.662;2023-05-10T04:38:10;8.02;;;3.33;;
56911;SDS011;42800;53.928;27.662;2023-05-10T04:40:36;6.68;;;2.90;;
56911;SDS011;42800;53.928;27.662;2023-05-10T04:43:02;3.42;;;2.63;;
56911;SDS011;42800;53.928;27.662;2023-05-10T04:45:28;6.05;;;2.60;;
56911;SDS011;42800;53.928;27.662;2023-05-10T04:47:53;7.88;;;4.15;;
56911;SDS011;42800;53.928;27.662;2023-05-10T04:50:19;5.75;;;2.65;;
56911;SDS011;42800;53.928;27.662;2023-05-10T04:52:45;7.10;;;3.08;;
56911;SDS011;42800;53.928;27.662;2023-05-10T04:55:12;5.95;;;3.50;;
56911;SDS011;42800;53.928;27.662;2023-05-10T04:57:38;11.40;;;3.58;;
56911;SDS011;42800;53.928;27.662;2023-05-10T05:00:05;5.13;;;3.28;;
56911;SDS011;42800;53.928;27.662;2023-05-10T05:02:32;6.20;;;2.53;;
56911;SDS011;42800;53.928;27.662;2023-05-10T05:04:57;5.65;;;3.42;;
56911;SDS011;42800;53.928;27.662;2023-05-10T05:07:23;9.80;;;3.50;;
56911;SDS011;42800;53.928;27.662;2023-05-10T05:09:49;8.52;;;3.80;;
56911;SDS011;42800;53.928;27.662;2023-05-10T05:12:16;4.40;;;2.80;;
56911;SDS011;42800;53.928;27.662;2023-05-10T05:14:42;3.85;;;2.90;;
56911;SDS011;42800;53.928;27.662;2023-05-10T05:17:08;4.57;;;2.90;;
56911;SDS011;42800;53.928;27.662;2023-05-10T05:19:34;9.52;;;2.65;;
56911;SDS011;42800;53.928;27.662;2023-05-10T05:22:00;4.97;;;3.30;;
56911;SDS011;42800;53.928;27.662;2023-05-10T05:24:26;5.18;;;2.83;;
56911;SDS011;42800;53.928;27.662;2023-05-10T05:26:52;5.53;;;2.45;;
56911;SDS011;42800;53.928;27.662;2023-05-10T05:29:20;5.40;;;3.10;;
56911;SDS011;42800;53.928;27.662;2023-05-10T05:31:46;8.45;;;2.83;;
56911;SDS011;42800;53.928;27.662;2023-05-10T05:34:12;3.47;;;2.42;;
56911;SDS011;42800;53.928;27.662;2023-05-10T05:36:37;4.03;;;2.20;;
56911;SDS011;42800;53.928;27.662;2023-05-10T05:39:03;3.13;;;2.10;;
56911;SDS011;42800;53.928;27.662;2023-05-10T05:41:29;5.20;;;2.40;;
56911;SDS011;42800;53.928;27.662;2023-05-10T05:43:55;2.75;;;2.17;;
56911;SDS011;42800;53.928;27.662;2023-05-10T05:46:22;4.47;;;2.30;;
56911;SDS011;42800;53.928;27.662;2023-05-10T05:48:48;5.15;;;2.40;;
56911;SDS011;42800;53.928;27.662;2023-05-10T05:51:14;8.63;;;2.20;;
56911;SDS011;42800;53.928;27.662;2023-05-10T05:53:40;2.80;;;2.00;;
56911;SDS011;42800;53.928;27.662;2023-05-10T05:56:05;3.15;;;2.80;;
56911;SDS011;42800;53.928;27.662;2023-05-10T05:58:32;6.65;;;2.05;;
56911;SDS011;42800;53.928;27.662;2023-05-10T06:00:58;2.30;;;2.10;;
56911;SDS011;42800;53.928;27.662;2023-05-10T06:03:27;6.50;;;2.78;;
56911;SDS011;42800;53.928;27.662;2023-05-10T06:05:53;6.05;;;2.42;;
56911;SDS011;42800;53.928;27.662;2023-05-10T06:08:19;4.60;;;2.00;;
56911;SDS011;42800;53.928;27.662;2023-05-10T06:10:45;1.90;;;1.80;;
56911;SDS011;42800;53.928;27.662;2023-05-10T06:13:11;3.13;;;2.45;;
56911;SDS011;42800;53.928;27.662;2023-05-10T06:15:37;3.75;;;1.58;;
56911;SDS011;42800;53.928;27.662;2023-05-10T06:18:03;6.68;;;2.08;;
56911;SDS011;42800;53.928;27.662;2023-05-10T06:20:30;1.90;;;1.80;;
56911;SDS011;42800;53.928;27.662;2023-05-10T06:22:56;3.58;;;1.92;;
56911;SDS011;42800;53.928;27.662;2023-05-10T06:25:23;12.70;;;2.35;;
56911;SDS011;42800;53.928;27.662;2023-05-10T06:27:49;5.78;;;2.35;;
56911;SDS011;42800;53.928;27.662;2023-05-10T06:30:14;3.53;;;2.10;;
56911;SDS011;42800;53.928;27.662;2023-05-10T06:32:40;3.90;;;1.90;;
56911;SDS011;42800;53.928;27.662;2023-05-10T06:35:08;3.78;;;1.70;;
56911;SDS011;42800;53.928;27.662;2023-05-10T06:37:35;4.75;;;2.15;;
56911;SDS011;42800;53.928;27.662;2023-05-10T06:40:01;3.38;;;2.33;;
56911;SDS011;42800;53.928;27.662;2023-05-10T06:42:28;2.78;;;1.80;;
56911;SDS011;42800;53.928;27.662;2023-05-10T06:44:54;4.80;;;2.10;;
56911;SDS011;42800;53.928;27.662;2023-05-10T06:47:20;2.88;;;1.70;;
56911;SDS011;42800;53.928;27.662;2023-05-10T06:49:47;6.18;;;2.00;;
56911;SDS011;42800;53.928;27.662;2023-05-10T06:52:13;4.80;;;3.17;;
56911;SDS011;42800;53.928;27.662;2023-05-10T06:54:39;9.38;;;2.35;;
56911;SDS011;42800;53.928;27.662;2023-05-10T06:57:05;3.63;;;1.95;;
56911;SDS011;42800;53.928;27.662;2023-05-10T06:59:31;2.13;;;1.83;;
56911;SDS011;42800;53.928;27.662;2023-05-10T07:01:57;6.82;;;1.90;;
56911;SDS011;42800;53.928;27.662;2023-05-10T07:04:23;8.85;;;2.55;;
56911;SDS011;42800;53.928;27.662;2023-05-10T07:06:49;1.92;;;1.60;;
56911;SDS011;42800;53.928;27.662;2023-05-10T07:09:15;2.35;;;1.70;;
56911;SDS011;42800;53.928;27.662;2023-05-10T07:11:41;2.15;;;1.95;;
56911;SDS011;42800;53.928;27.662;2023-05-10T07:14:07;2.90;;;2.20;;
56911;SDS011;42800;53.928;27.662;2023-05-10T07:16:33;3.30;;;2.30;;
56911;SDS011;42800;53.928;27.662;2023-05-10T07:18:59;2.30;;;2.05;;
56911;SDS011;42800;53.928;27.662;2023-05-10T07:21:25;2.50;;;2.30;;
56911;SDS011;42800;53.928;27.662;2023-05-10T07:23:53;3.90;;;2.15;;
56911;SDS011;42800;53.928;27.662;2023-05-10T07:26:19;2.40;;;2.20;;
56911;SDS011;42800;53.928;27.662;2023-05-10T07:28:47;5.55;;;2.40;;
56911;SDS011;42800;53.928;27.662;2023-05-10T07:31:12;4.07;;;2.00;;
56911;SDS011;42800;53.928;27.662;2023-05-10T07:33:38;2.83;;;1.98;;
56911;SDS011;42800;53.928;27.662;2023-05-10T07:36:05;4.88;;;2.22;;
56911;SDS011;42800;53.928;27.662;2023-05-10T07:38:31;3.50;;;1.88;;
56911;SDS011;42800;53.928;27.662;2023-05-10T07:40:57;3.03;;;2.15;;
56911;SDS011;42800;53.928;27.662;2023-05-10T07:43:22;7.22;;;2.22;;
56911;SDS011;42800;53.928;27.662;2023-05-10T07:45:49;4.57;;;2.33;;
56911;SDS011;42800;53.928;27.662;2023-05-10T07:48:15;3.72;;;3.42;;
56911;SDS011;42800;53.928;27.662;2023-05-10T07:50:41;6.25;;;2.78;;
56911;SDS011;42800;53.928;27.662;2023-05-10T07:53:07;2.20;;;1.88;;
56911;SDS011;42800;53.928;27.662;2023-05-10T07:55:33;1.95;;;1.73;;
56911;SDS011;42800;53.928;27.662;2023-05-10T07:57:58;6.32;;;1.88;;
56911;SDS011;42800;53.928;27.662;2023-05-10T08:00:26;6.72;;;2.17;;
56911;SDS011;42800;53.928;27.662;2023-05-10T08:02:52;2.42;;;2.13;;
56911;SDS011;42800;53.928;27.662;2023-05-10T08:05:18;3.25;;;2.20;;
56911;SDS011;42800;53.928;27.662;2023-05-10T08:07:44;2.53;;;1.73;;
56911;SDS011;42800;53.928;27.662;2023-05-10T08:10:10;3.78;;;2.05;;
56911;SDS011;42800;53.928;27.662;2023-05-10T08:12:36;3.78;;;2.30;;
56911;SDS011;42800;53.928;27.662;2023-05-10T08:15:03;2.60;;;2.13;;
56911;SDS011;42800;53.928;27.662;2023-05-10T08:17:30;2.80;;;2.10;;
56911;SDS011;42800;53.928;27.662;2023-05-10T08:19:56;5.60;;;1.40;;
56911;SDS011;42800;53.928;27.662;2023-05-10T08:22:22;2.00;;;1.73;;
56911;SDS011;42800;53.928;27.662;2023-05-10T08:24:48;4.57;;;2.10;;
56911;SDS011;42800;53.928;27.662;2023-05-10T08:27:14;4.78;;;2.30;;
56911;SDS011;42800;53.928;27.662;2023-05-10T08:29:40;4.75;;;2.15;;
56911;SDS011;42800;53.928;27.662;2023-05-10T08:32:06;2.10;;;1.90;;
56911;SDS011;42800;53.928;27.662;2023-05-10T08:34:32;2.95;;;2.17;;
56911;SDS011;42800;53.928;27.662;2023-05-10T08:36:59;3.25;;;2.08;;
56911;SDS011;42800;53.928;27.662;2023-05-10T08:39:24;3.35;;;2.33;;
56911;SDS011;42800;53.928;27.662;2023-05-10T08:41:50;5.05;;;2.38;;
56911;SDS011;42800;53.928;27.662;2023-05-10T08:44:18;3.25;;;1.65;;
56911;SDS011;42800;53.928;27.662;2023-05-10T08:46:46;4.40;;;1.70;;
56911;SDS011;42800;53.928;27.662;2023-05-10T08:49:13;2.80;;;1.75;;
56911;SDS011;42800;53.928;27.662;2023-05-10T08:51:43;4.72;;;2.13;;
56911;SDS011;42800;53.928;27.662;2023-05-10T08:54:13;2.30;;;1.90;;
56911;SDS011;42800;53.928;27.662;2023-05-10T08:56:39;2.03;;;1.67;;
56911;SDS011;42800;53.928;27.662;2023-05-10T08:59:05;2.78;;;1.75;;
56911;SDS011;42800;53.928;27.662;2023-05-10T09:01:31;4.70;;;2.40;;
56911;SDS011;42800;53.928;27.662;2023-05-10T09:04:01;4.38;;;2.03;;
56911;SDS011;42800;53.928;27.662;2023-05-10T09:06:29;2.35;;;1.70;;
56911;SDS011;42800;53.928;27.662;2023-05-10T09:08:55;2.28;;;1.48;;
56911;SDS011;42800;53.928;27.662;2023-05-10T09:11:22;2.33;;;1.70;;
56911;SDS011;42800;53.928;27.662;2023-05-10T09:13:49;3.72;;;2.25;;
56911;SDS011;42800;53.928;27.662;2023-05-10T09:16:16;3.20;;;2.00;;
56911;SDS011;42800;53.928;27.662;2023-05-10T09:18:42;3.33;;;2.10;;
56911;SDS011;42800;53.928;27.662;2023-05-10T09:21:08;2.15;;;1.90;;
56911;SDS011;42800;53.928;27.662;2023-05-10T09:23:35;2.30;;;1.85;;
56911;SDS011;42800;53.928;27.662;2023-05-10T09:26:02;2.60;;;1.92;;
56911;SDS011;42800;53.928;27.662;2023-05-10T09:28:31;2.75;;;1.75;;
56911;SDS011;42800;53.928;27.662;2023-05-10T09:30:57;5.13;;;1.88;;
56911;SDS011;42800;53.928;27.662;2023-05-10T09:33:24;2.75;;;1.75;;
56911;SDS011;42800;53.928;27.662;2023-05-10T09:35:51;2.30;;;1.52;;
56911;SDS011;42800;53.928;27.662;2023-05-10T09:38:17;3.33;;;1.85;;
56911;SDS011;42800;53.928;27.662;2023-05-10T09:40:43;3.25;;;1.63;;
56911;SDS011;42800;53.928;27.662;2023-05-10T09:43:19;2.10;;;1.83;;
56911;SDS011;42800;53.928;27.662;2023-05-10T09:45:48;2.83;;;1.70;;
56911;SDS011;42800;53.928;27.662;2023-05-10T09:48:14;1.85;;;1.73;;
56911;SDS011;42800;53.928;27.662;2023-05-10T09:50:40;2.60;;;2.00;;
56911;SDS011;42800;53.928;27.662;2023-05-10T09:53:06;2.88;;;1.48;;
56911;SDS011;42800;53.928;27.662;2023-05-10T09:55:39;2.40;;;1.75;;
56911;SDS011;42800;53.928;27.662;2023-05-10T10:00:36;1.90;;;1.60;;
56911;SDS011;42800;53.928;27.662;2023-05-10T10:03:03;3.65;;;1.55;;
56911;SDS011;42800;53.928;27.662;2023-05-10T10:05:30;1.85;;;1.70;;
56911;SDS011;42800;53.928;27.662;2023-05-10T10:07:57;3.40;;;1.90;;
56911;SDS011;42800;53.928;27.662;2023-05-10T10:10:24;3.90;;;2.10;;
56911;SDS011;42800;53.928;27.662;2023-05-10T10:12:50;4.55;;;2.35;;
56911;SDS011;42800;53.928;27.662;2023-05-10T10:15:16;3.45;;;2.50;;
56911;SDS011;42800;53.928;27.662;2023-05-10T10:17:43;4.63;;;1.83;;
56911;SDS011;42800;53.928;27.662;2023-05-10T10:20:10;1.92;;;1.60;;
56911;SDS011;42800;53.928;27.662;2023-05-10T10:22:36;1.90;;;1.70;;
56911;SDS011;42800;53.928;27.662;2023-05-10T10:25:03;3.47;;;1.80;;
56911;SDS011;42800;53.928;27.662;2023-05-10T10:27:33;2.33;;;1.67;;
56911;SDS011;42800;53.928;27.662;2023-05-10T10:30:10;1.92;;;1.67;;
56911;SDS011;42800;53.928;27.662;2023-05-10T10:32:52;2.70;;;1.63;;
56911;SDS011;42800;53.928;27.662;2023-05-10T10:35:28;9.90;;;2.13;;
56911;SDS011;42800;53.928;27.662;2023-05-10T10:37:55;4.75;;;2.45;;
56911;SDS011;42800;53.928;27.662;2023-05-10T10:40:28;2.10;;;1.90;;
56911;SDS011;42800;53.928;27.662;2023-05-10T10:42:56;4.05;;;1.67;;
56911;SDS011;42800;53.928;27.662;2023-05-10T10:45:22;3.03;;;1.98;;
56911;SDS011;42800;53.928;27.662;2023-05-10T10:47:53;2.50;;;1.58;;
56911;SDS011;42800;53.928;27.662;2023-05-10T10:50:44;7.15;;;2.35;;
56911;SDS011;42800;53.928;27.662;2023-05-10T10:53:11;4.60;;;2.47;;
56911;SDS011;42800;53.928;27.662;2023-05-10T10:55:44;1.67;;;1.58;;
56911;SDS011;42800;53.928;27.662;2023-05-10T10:58:12;3.15;;;2.00;;
56911;SDS011;42800;53.928;27.662;2023-05-10T11:01:00;3.97;;;1.98;;
56911;SDS011;42800;53.928;27.662;2023-05-10T11:03:35;4.00;;;1.88;;
56911;SDS011;42800;53.928;27.662;2023-05-10T11:06:02;2.88;;;1.80;;
56911;SDS011;42800;53.928;27.662;2023-05-10T11:08:28;4.68;;;2.20;;
56911;SDS011;42800;53.928;27.662;2023-05-10T11:11:05;3.90;;;1.83;;
56911;SDS011;42800;53.928;27.662;2023-05-10T11:13:33;6.18;;;1.80;;
56911;SDS011;42800;53.928;27.662;2023-05-10T11:16:09;4.85;;;2.28;;
56911;SDS011;42800;53.928;27.662;2023-05-10T11:18:39;5.97;;;1.90;;
56911;SDS011;42800;53.928;27.662;2023-05-10T11:21:08;2.47;;;1.95;;
56911;SDS011;42800;53.928;27.662;2023-05-10T11:23:47;1.80;;;1.70;;
56911;SDS011;42800;53.928;27.662;2023-05-10T11:26:14;2.35;;;1.95;;
56911;SDS011;42800;53.928;27.662;2023-05-10T11:28:41;5.43;;;2.42;;
56911;SDS011;42800;53.928;27.662;2023-05-10T11:31:07;4.07;;;1.73;;
56911;SDS011;42800;53.928;27.662;2023-05-10T11:33:41;1.73;;;1.55;;
56911;SDS011;42800;53.928;27.662;2023-05-10T11:36:11;2.88;;;1.98;;
56911;SDS011;42800;53.928;27.662;2023-05-10T11:38:37;3.65;;;1.83;;
56911;SDS011;42800;53.928;27.662;2023-05-10T11:41:03;6.90;;;1.63;;
56911;SDS011;42800;53.928;27.662;2023-05-10T11:43:29;3.78;;;2.15;;
56911;SDS011;42800;53.928;27.662;2023-05-10T11:45:55;4.20;;;1.90;;
56911;SDS011;42800;53.928;27.662;2023-05-10T11:48:22;4.78;;;1.92;;
56911;SDS011;42800;53.928;27.662;2023-05-10T11:50:48;5.35;;;1.73;;
56911;SDS011;42800;53.928;27.662;2023-05-10T11:53:15;2.05;;;1.58;;
56911;SDS011;42800;53.928;27.662;2023-05-10T11:55:41;2.55;;;1.70;;
56911;SDS011;42800;53.928;27.662;2023-05-10T11:58:07;5.60;;;2.20;;
56911;SDS011;42800;53.928;27.662;2023-05-10T12:00:33;6.97;;;2.05;;
56911;SDS011;42800;53.928;27.662;2023-05-10T12:03:00;2.28;;;2.08;;
56911;SDS011;42800;53.928;27.662;2023-05-10T12:05:27;4.18;;;2.10;;
56911;SDS011;42800;53.928;27.662;2023-05-10T12:07:53;2.15;;;1.65;;
56911;SDS011;42800;53.928;27.662;2023-05-10T12:10:37;7.80;;;1.98;;
56911;SDS011;42800;53.928;27.662;2023-05-10T12:13:02;3.95;;;1.75;;
56911;SDS011;42800;53.928;27.662;2023-05-10T12:15:28;4.05;;;2.03;;
56911;SDS011;42800;53.928;27.662;2023-05-10T12:17:54;4.70;;;2.40;;
56911;SDS011;42800;53.928;27.662;2023-05-10T12:20:23;2.10;;;1.90;;
56911;SDS011;42800;53.928;27.662;2023-05-10T12:22:53;2.67;;;1.90;;
56911;SDS011;42800;53.928;27.662;2023-05-10T12:25:21;7.85;;;2.55;;
56911;SDS011;42800;53.928;27.662;2023-05-10T12:27:48;7.88;;;2.10;;
56911;SDS011;42800;53.928;27.662;2023-05-10T12:30:20;4.97;;;2.15;;
56911;SDS011;42800;53.928;27.662;2023-05-10T12:32:47;5.30;;;2.30;;
56911;SDS011;42800;53.928;27.662;2023-05-10T12:35:13;3.65;;;1.98;;
56911;SDS011;42800;53.928;27.662;2023-05-10T12:37:39;2.33;;;2.00;;
56911;SDS011;42800;53.928;27.662;2023-05-10T12:40:05;5.00;;;2.22;;
56911;SDS011;42800;53.928;27.662;2023-05-10T12:42:33;2.40;;;1.90;;
56911;SDS011;42800;53.928;27.662;2023-05-10T12:45:00;5.45;;;2.47;;
56911;SDS011;42800;53.928;27.662;2023-05-10T12:47:26;2.90;;;1.75;;
56911;SDS011;42800;53.928;27.662;2023-05-10T12:49:52;4.95;;;1.65;;
56911;SDS011;42800;53.928;27.662;2023-05-10T12:52:18;2.03;;;1.83;;
56911;SDS011;42800;53.928;27.662;2023-05-10T12:54:44;4.55;;;2.20;;
56911;SDS011;42800;53.928;27.662;2023-05-10T12:57:10;2.38;;;1.52;;
56911;SDS011;42800;53.928;27.662;2023-05-10T12:59:36;5.60;;;2.00;;
56911;SDS011;42800;53.928;27.662;2023-05-10T13:02:02;3.65;;;2.50;;
56911;SDS011;42800;53.928;27.662;2023-05-10T13:04:28;3.22;;;1.90;;
56911;SDS011;42800;53.928;27.662;2023-05-10T13:06:54;3.90;;;1.90;;
56911;SDS011;42800;53.928;27.662;2023-05-10T13:09:23;6.90;;;2.58;;
56911;SDS011;42800;53.928;27.662;2023-05-10T13:11:50;3.20;;;2.53;;
56911;SDS011;42800;53.928;27.662;2023-05-10T13:14:16;1.98;;;1.80;;
56911;SDS011;42800;53.928;27.662;2023-05-10T13:16:42;5.78;;;1.85;;
56911;SDS011;42800;53.928;27.662;2023-05-10T13:19:08;3.03;;;1.95;;
56911;SDS011;42800;53.928;27.662;2023-05-10T13:21:34;6.63;;;2.03;;
56911;SDS011;42800;53.928;27.662;2023-05-10T13:24:00;2.55;;;1.88;;
56911;SDS011;42800;53.928;27.662;2023-05-10T13:26:26;2.95;;;2.67;;
56911;SDS011;42800;53.928;27.662;2023-05-10T13:28:53;7.53;;;1.88;;
56911;SDS011;42800;53.928;27.662;2023-05-10T13:31:20;5.28;;;1.90;;
56911;SDS011;42800;53.928;27.662;2023-05-10T13:33:46;6.10;;;1.73;;
56911;SDS011;42800;53.928;27.662;2023-05-10T13:36:13;7.70;;;2.30;;
56911;SDS011;42800;53.928;27.662;2023-05-10T13:38:39;2.60;;;1.77;;
56911;SDS011;42800;53.928;27.662;2023-05-10T13:41:05;6.30;;;2.05;;
56911;SDS011;42800;53.928;27.662;2023-05-10T13:43:31;7.15;;;1.90;;
56911;SDS011;42800;53.928;27.662;2023-05-10T13:45:57;8.13;;;1.90;;
56911;SDS011;42800;53.928;27.662;2023-05-10T13:48:23;5.72;;;2.65;;
56911;SDS011;42800;53.928;27.662;2023-05-10T13:50:49;2.60;;;1.70;;
56911;SDS011;42800;53.928;27.662;2023-05-10T13:53:15;3.47;;;2.00;;
56911;SDS011;42800;53.928;27.662;2023-05-10T13:59:03;2.13;;;1.92;;
56911;SDS011;42800;53.928;27.662;2023-05-10T14:01:29;4.60;;;1.90;;
56911;SDS011;42800;53.928;27.662;2023-05-10T14:03:56;6.22;;;2.50;;
56911;SDS011;42800;53.928;27.662;2023-05-10T14:06:22;4.95;;;1.80;;
56911;SDS011;42800;53.928;27.662;2023-05-10T14:08:49;5.13;;;1.90;;
56911;SDS011;42800;53.928;27.662;2023-05-10T14:11:15;2.33;;;1.88;;
56911;SDS011;42800;53.928;27.662;2023-05-10T14:13:41;1.83;;;1.55;;
56911;SDS011;42800;53.928;27.662;2023-05-10T14:16:07;4.30;;;1.98;;
56911;SDS011;42800;53.928;27.662;2023-05-10T14:18:33;2.78;;;1.92;;
56911;SDS011;42800;53.928;27.662;2023-05-10T14:20:59;4.07;;;2.25;;
56911;SDS011;42800;53.928;27.662;2023-05-10T14:23:25;3.22;;;2.05;;
56911;SDS011;42800;53.928;27.662;2023-05-10T14:25:54;4.93;;;1.98;;
56911;SDS011;42800;53.928;27.662;2023-05-10T14:28:20;3.00;;;1.90;;
56911;SDS011;42800;53.928;27.662;2023-05-10T14:30:47;5.13;;;1.73;;
56911;SDS011;42800;53.928;27.662;2023-05-10T14:33:13;4.97;;;2.25;;
56911;SDS011;42800;53.928;27.662;2023-05-10T14:35:39;3.13;;;2.15;;
56911;SDS011;42800;53.928;27.662;2023-05-10T14:38:05;4.20;;;1.77;;
56911;SDS011;42800;53.928;27.662;2023-05-10T14:40:31;6.15;;;2.15;;
56911;SDS011;42800;53.928;27.662;2023-05-10T14:42:58;4.95;;;2.20;;